sensor_id;sensor_type;location;lat;lon;timestamp;P1;durP1;ratioP1;P2;durP2;ratioP2
25717;SDS011;13574;52.040;5.692;2023-07-08T00:00:42;4.90;;;3.17;;
25717;SDS011;13574;52.040;5.692;2023-07-08T00:03:08;4.88;;;3.15;;
25717;SDS011;13574;52.040;5.692;2023-07-08T00:05:34;5.47;;;3.40;;
25717;SDS011;13574;52.040;5.692;2023-07-08T00:08:04;4.97;;;3.33;;
25717;SDS011;13574;52.040;5.692;2023-07-08T00:10:29;5.07;;;3.55;;
25717;SDS011;13574;52.040;5.692;2023-07-08T00:12:56;7.18;;;3.70;;
25717;SDS011;13574;52.040;5.692;2023-07-08T00:15:27;4.57;;;3.40;;
25717;SDS011;13574;52.040;5.692;2023-07-08T00:17:58;6.47;;;3.72;;
25717;SDS011;13574;52.040;5.692;2023-07-08T00:20:38;5.45;;;3.13;;
25717;SDS011;13574;52.040;5.692;2023-07-08T00:23:14;4.55;;;3.33;;
25717;SDS011;13574;52.040;5.692;2023-07-08T00:25:40;4.80;;;3.40;;
25717;SDS011;13574;52.040;5.692;2023-07-08T00:28:10;6.20;;;3.47;;
25717;SDS011;13574;52.040;5.692;2023-07-08T00:30:42;7.65;;;3.70;;
25717;SDS011;13574;52.040;5.692;2023-07-08T00:33:10;6.35;;;3.70;;
25717;SDS011;13574;52.040;5.692;2023-07-08T00:35:41;6.00;;;3.47;;
25717;SDS011;13574;52.040;5.692;2023-07-08T00:38:23;8.10;;;3.30;;
25717;SDS011;13574;52.040;5.692;2023-07-08T00:40:58;5.05;;;3.53;;
25717;SDS011;13574;52.040;5.692;2023-07-08T00:43:37;7.93;;;3.70;;
25717;SDS011;13574;52.040;5.692;2023-07-08T00:46:21;4.85;;;3.28;;
25717;SDS011;13574;52.040;5.692;2023-07-08T00:51:50;5.85;;;3.95;;
25717;SDS011;13574;52.040;5.692;2023-07-08T00:54:16;5.72;;;3.35;;
25717;SDS011;13574;52.040;5.692;2023-07-08T00:59:19;6.55;;;3.50;;
25717;SDS011;13574;52.040;5.692;2023-07-08T01:01:49;5.38;;;3.53;;
25717;SDS011;13574;52.040;5.692;2023-07-08T01:04:23;6.18;;;3.50;;
25717;SDS011;13574;52.040;5.692;2023-07-08T01:06:55;5.63;;;3.35;;
25717;SDS011;13574;52.040;5.692;2023-07-08T01:09:27;6.05;;;3.63;;
25717;SDS011;13574;52.040;5.692;2023-07-08T01:11:58;5.35;;;3.20;;
25717;SDS011;13574;52.040;5.692;2023-07-08T01:14:29;7.90;;;3.28;;
25717;SDS011;13574;52.040;5.692;2023-07-08T01:17:00;4.70;;;3.63;;
25717;SDS011;13574;52.040;5.692;2023-07-08T01:19:29;6.45;;;3.53;;
25717;SDS011;13574;52.040;5.692;2023-07-08T01:22:02;5.70;;;3.53;;
25717;SDS011;13574;52.040;5.692;2023-07-08T01:24:30;5.28;;;3.70;;
25717;SDS011;13574;52.040;5.692;2023-07-08T01:26:57;6.05;;;3.60;;
25717;SDS011;13574;52.040;5.692;2023-07-08T01:29:27;5.25;;;3.47;;
25717;SDS011;13574;52.040;5.692;2023-07-08T01:31:54;7.05;;;3.88;;
25717;SDS011;13574;52.040;5.692;2023-07-08T01:34:21;6.95;;;3.80;;
25717;SDS011;13574;52.040;5.692;2023-07-08T01:36:48;5.88;;;3.80;;
25717;SDS011;13574;52.040;5.692;2023-07-08T01:39:20;5.28;;;3.45;;
25717;SDS011;13574;52.040;5.692;2023-07-08T01:41:47;5.88;;;3.60;;
25717;SDS011;13574;52.040;5.692;2023-07-08T01:44:33;4.82;;;3.60;;
25717;SDS011;13574;52.040;5.692;2023-07-08T01:47:03;6.38;;;4.00;;
25717;SDS011;13574;52.040;5.692;2023-07-08T01:49:33;6.22;;;3.53;;
25717;SDS011;13574;52.040;5.692;2023-07-08T01:52:05;5.88;;;3.80;;
25717;SDS011;13574;52.040;5.692;2023-07-08T01:54:35;4.30;;;3.53;;
25717;SDS011;13574;52.040;5.692;2023-07-08T01:57:00;5.68;;;3.65;;
25717;SDS011;13574;52.040;5.692;2023-07-08T01:59:27;5.20;;;3.55;;
25717;SDS011;13574;52.040;5.692;2023-07-08T02:01:54;6.63;;;3.60;;
25717;SDS011;13574;52.040;5.692;2023-07-08T02:04:22;6.28;;;3.70;;
25717;SDS011;13574;52.040;5.692;2023-07-08T02:06:56;5.93;;;3.75;;
25717;SDS011;13574;52.040;5.692;2023-07-08T02:09:23;5.10;;;3.47;;
25717;SDS011;13574;52.040;5.692;2023-07-08T02:11:54;5.53;;;3.80;;
25717;SDS011;13574;52.040;5.692;2023-07-08T02:14:20;6.22;;;3.78;;
25717;SDS011;13574;52.040;5.692;2023-07-08T02:16:46;4.63;;;3.50;;
25717;SDS011;13574;52.040;5.692;2023-07-08T02:19:12;4.60;;;3.25;;
25717;SDS011;13574;52.040;5.692;2023-07-08T02:21:40;3.97;;;3.20;;
25717;SDS011;13574;52.040;5.692;2023-07-08T02:24:06;5.28;;;3.50;;
25717;SDS011;13574;52.040;5.692;2023-07-08T02:26:32;7.18;;;3.47;;
25717;SDS011;13574;52.040;5.692;2023-07-08T02:28:58;5.95;;;3.55;;
25717;SDS011;13574;52.040;5.692;2023-07-08T02:31:24;5.53;;;3.58;;
25717;SDS011;13574;52.040;5.692;2023-07-08T02:33:58;4.68;;;3.20;;
25717;SDS011;13574;52.040;5.692;2023-07-08T02:36:24;5.20;;;3.40;;
25717;SDS011;13574;52.040;5.692;2023-07-08T02:38:53;5.30;;;4.10;;
25717;SDS011;13574;52.040;5.692;2023-07-08T02:41:23;4.82;;;3.20;;
25717;SDS011;13574;52.040;5.692;2023-07-08T02:43:51;6.57;;;3.85;;
25717;SDS011;13574;52.040;5.692;2023-07-08T02:46:17;4.97;;;3.60;;
25717;SDS011;13574;52.040;5.692;2023-07-08T02:48:42;5.47;;;3.58;;
25717;SDS011;13574;52.040;5.692;2023-07-08T02:51:08;5.28;;;3.50;;
25717;SDS011;13574;52.040;5.692;2023-07-08T02:53:34;8.27;;;3.92;;
25717;SDS011;13574;52.040;5.692;2023-07-08T02:56:00;5.50;;;3.53;;
25717;SDS011;13574;52.040;5.692;2023-07-08T02:58:26;5.40;;;3.70;;
25717;SDS011;13574;52.040;5.692;2023-07-08T03:00:53;4.53;;;3.35;;
25717;SDS011;13574;52.040;5.692;2023-07-08T03:03:19;4.97;;;3.20;;
25717;SDS011;13574;52.040;5.692;2023-07-08T03:05:53;6.20;;;3.45;;
25717;SDS011;13574;52.040;5.692;2023-07-08T03:08:21;5.47;;;3.53;;
25717;SDS011;13574;52.040;5.692;2023-07-08T03:10:53;5.88;;;3.50;;
25717;SDS011;13574;52.040;5.692;2023-07-08T03:13:24;5.28;;;3.55;;
25717;SDS011;13574;52.040;5.692;2023-07-08T03:15:53;5.00;;;3.50;;
25717;SDS011;13574;52.040;5.692;2023-07-08T03:18:20;7.07;;;3.65;;
25717;SDS011;13574;52.040;5.692;2023-07-08T03:20:48;6.97;;;3.42;;
25717;SDS011;13574;52.040;5.692;2023-07-08T03:23:14;4.68;;;3.10;;
25717;SDS011;13574;52.040;5.692;2023-07-08T03:25:40;5.70;;;3.63;;
25717;SDS011;13574;52.040;5.692;2023-07-08T03:28:06;6.97;;;3.67;;
25717;SDS011;13574;52.040;5.692;2023-07-08T03:30:39;6.53;;;3.50;;
25717;SDS011;13574;52.040;5.692;2023-07-08T03:33:05;8.35;;;3.70;;
25717;SDS011;13574;52.040;5.692;2023-07-08T03:35:31;4.45;;;3.10;;
25717;SDS011;13574;52.040;5.692;2023-07-08T03:37:57;6.90;;;3.90;;
25717;SDS011;13574;52.040;5.692;2023-07-08T03:40:22;5.55;;;3.35;;
25717;SDS011;13574;52.040;5.692;2023-07-08T03:42:48;13.05;;;3.40;;
25717;SDS011;13574;52.040;5.692;2023-07-08T03:45:14;5.20;;;3.70;;
25717;SDS011;13574;52.040;5.692;2023-07-08T03:47:39;5.55;;;3.65;;
25717;SDS011;13574;52.040;5.692;2023-07-08T03:50:18;5.60;;;3.60;;
25717;SDS011;13574;52.040;5.692;2023-07-08T03:52:50;5.97;;;3.60;;
25717;SDS011;13574;52.040;5.692;2023-07-08T03:55:18;6.13;;;4.28;;
25717;SDS011;13574;52.040;5.692;2023-07-08T03:57:45;6.35;;;3.67;;
25717;SDS011;13574;52.040;5.692;2023-07-08T04:00:11;5.65;;;3.47;;
25717;SDS011;13574;52.040;5.692;2023-07-08T04:02:38;4.82;;;3.90;;
25717;SDS011;13574;52.040;5.692;2023-07-08T04:05:07;6.80;;;3.80;;
25717;SDS011;13574;52.040;5.692;2023-07-08T04:07:37;5.82;;;3.65;;
25717;SDS011;13574;52.040;5.692;2023-07-08T04:10:06;5.07;;;3.70;;
25717;SDS011;13574;52.040;5.692;2023-07-08T04:12:32;6.28;;;3.78;;
25717;SDS011;13574;52.040;5.692;2023-07-08T04:14:58;4.60;;;3.47;;
25717;SDS011;13574;52.040;5.692;2023-07-08T04:17:24;4.80;;;3.70;;
25717;SDS011;13574;52.040;5.692;2023-07-08T04:19:50;5.78;;;4.05;;
25717;SDS011;13574;52.040;5.692;2023-07-08T04:22:15;7.15;;;3.97;;
25717;SDS011;13574;52.040;5.692;2023-07-08T04:24:41;4.57;;;3.08;;
25717;SDS011;13574;52.040;5.692;2023-07-08T04:27:09;4.80;;;3.40;;
25717;SDS011;13574;52.040;5.692;2023-07-08T04:29:40;4.80;;;3.22;;
25717;SDS011;13574;52.040;5.692;2023-07-08T04:32:06;4.40;;;3.60;;
25717;SDS011;13574;52.040;5.692;2023-07-08T04:34:32;6.78;;;3.58;;
25717;SDS011;13574;52.040;5.692;2023-07-08T04:36:58;7.18;;;3.60;;
25717;SDS011;13574;52.040;5.692;2023-07-08T04:39:24;5.43;;;3.60;;
25717;SDS011;13574;52.040;5.692;2023-07-08T04:41:49;6.43;;;3.38;;
25717;SDS011;13574;52.040;5.692;2023-07-08T04:44:15;4.88;;;3.38;;
25717;SDS011;13574;52.040;5.692;2023-07-08T04:47:17;5.40;;;3.70;;
25717;SDS011;13574;52.040;5.692;2023-07-08T04:49:38;4.78;;;3.60;;
25717;SDS011;13574;52.040;5.692;2023-07-08T04:52:08;8.90;;;3.70;;
25717;SDS011;13574;52.040;5.692;2023-07-08T04:54:34;5.10;;;3.78;;
25717;SDS011;13574;52.040;5.692;2023-07-08T04:57:00;9.15;;;3.42;;
25717;SDS011;13574;52.040;5.692;2023-07-08T04:59:29;7.70;;;3.78;;
25717;SDS011;13574;52.040;5.692;2023-07-08T05:01:59;4.82;;;3.70;;
25717;SDS011;13574;52.040;5.692;2023-07-08T05:07:19;6.40;;;3.38;;
25717;SDS011;13574;52.040;5.692;2023-07-08T05:10:23;5.93;;;3.40;;
25717;SDS011;13574;52.040;5.692;2023-07-08T05:13:11;8.20;;;3.55;;
25717;SDS011;13574;52.040;5.692;2023-07-08T05:15:41;4.93;;;3.13;;
25717;SDS011;13574;52.040;5.692;2023-07-08T05:18:14;6.15;;;3.60;;
25717;SDS011;13574;52.040;5.692;2023-07-08T05:24:24;6.60;;;3.60;;
25717;SDS011;13574;52.040;5.692;2023-07-08T05:26:57;6.53;;;3.75;;
25717;SDS011;13574;52.040;5.692;2023-07-08T05:29:28;6.03;;;3.47;;
25717;SDS011;13574;52.040;5.692;2023-07-08T05:32:03;5.28;;;3.20;;
25717;SDS011;13574;52.040;5.692;2023-07-08T05:34:37;4.88;;;3.55;;
25717;SDS011;13574;52.040;5.692;2023-07-08T05:37:03;6.90;;;3.80;;
25717;SDS011;13574;52.040;5.692;2023-07-08T05:39:31;5.18;;;3.45;;
25717;SDS011;13574;52.040;5.692;2023-07-08T05:41:57;4.45;;;3.10;;
25717;SDS011;13574;52.040;5.692;2023-07-08T05:44:23;5.57;;;3.20;;
25717;SDS011;13574;52.040;5.692;2023-07-08T05:46:49;7.30;;;3.80;;
25717;SDS011;13574;52.040;5.692;2023-07-08T05:49:27;5.53;;;3.30;;
25717;SDS011;13574;52.040;5.692;2023-07-08T05:51:55;4.70;;;3.53;;
25717;SDS011;13574;52.040;5.692;2023-07-08T05:54:33;4.65;;;3.42;;
25717;SDS011;13574;52.040;5.692;2023-07-08T05:57:02;4.97;;;3.05;;
25717;SDS011;13574;52.040;5.692;2023-07-08T05:59:34;5.20;;;3.45;;
25717;SDS011;13574;52.040;5.692;2023-07-08T06:02:01;5.47;;;3.45;;
25717;SDS011;13574;52.040;5.692;2023-07-08T06:04:27;5.15;;;3.30;;
25717;SDS011;13574;52.040;5.692;2023-07-08T06:06:53;5.35;;;3.70;;
25717;SDS011;13574;52.040;5.692;2023-07-08T06:09:19;5.15;;;3.15;;
25717;SDS011;13574;52.040;5.692;2023-07-08T06:11:44;5.95;;;2.92;;
25717;SDS011;13574;52.040;5.692;2023-07-08T06:14:10;6.53;;;3.25;;
25717;SDS011;13574;52.040;5.692;2023-07-08T06:16:36;7.07;;;3.58;;
25717;SDS011;13574;52.040;5.692;2023-07-08T06:19:09;4.40;;;3.40;;
25717;SDS011;13574;52.040;5.692;2023-07-08T06:21:35;5.45;;;3.00;;
25717;SDS011;13574;52.040;5.692;2023-07-08T06:24:01;4.85;;;3.20;;
25717;SDS011;13574;52.040;5.692;2023-07-08T06:26:27;6.03;;;3.50;;
25717;SDS011;13574;52.040;5.692;2023-07-08T06:28:52;5.43;;;3.83;;
25717;SDS011;13574;52.040;5.692;2023-07-08T06:31:18;6.38;;;3.65;;
25717;SDS011;13574;52.040;5.692;2023-07-08T06:33:44;4.50;;;3.25;;
25717;SDS011;13574;52.040;5.692;2023-07-08T06:36:09;7.47;;;3.40;;
25717;SDS011;13574;52.040;5.692;2023-07-08T06:38:35;4.63;;;3.33;;
25717;SDS011;13574;52.040;5.692;2023-07-08T06:41:01;4.40;;;3.50;;
25717;SDS011;13574;52.040;5.692;2023-07-08T06:43:26;5.22;;;3.35;;
25717;SDS011;13574;52.040;5.692;2023-07-08T06:45:52;5.75;;;3.20;;
25717;SDS011;13574;52.040;5.692;2023-07-08T06:48:18;4.70;;;3.35;;
25717;SDS011;13574;52.040;5.692;2023-07-08T06:50:49;5.32;;;3.40;;
25717;SDS011;13574;52.040;5.692;2023-07-08T06:53:17;5.97;;;3.22;;
25717;SDS011;13574;52.040;5.692;2023-07-08T06:55:44;6.53;;;3.40;;
25717;SDS011;13574;52.040;5.692;2023-07-08T06:58:10;5.63;;;3.45;;
25717;SDS011;13574;52.040;5.692;2023-07-08T07:00:37;4.50;;;3.35;;
25717;SDS011;13574;52.040;5.692;2023-07-08T07:03:20;4.82;;;3.42;;
25717;SDS011;13574;52.040;5.692;2023-07-08T07:09:10;5.72;;;3.40;;
25717;SDS011;13574;52.040;5.692;2023-07-08T07:11:36;5.35;;;3.40;;
25717;SDS011;13574;52.040;5.692;2023-07-08T07:14:02;6.05;;;3.33;;
25717;SDS011;13574;52.040;5.692;2023-07-08T07:16:27;5.32;;;3.38;;
25717;SDS011;13574;52.040;5.692;2023-07-08T07:18:53;5.60;;;3.20;;
25717;SDS011;13574;52.040;5.692;2023-07-08T07:21:19;3.85;;;3.17;;
25717;SDS011;13574;52.040;5.692;2023-07-08T07:23:44;4.10;;;3.45;;
25717;SDS011;13574;52.040;5.692;2023-07-08T07:26:10;4.65;;;3.45;;
25717;SDS011;13574;52.040;5.692;2023-07-08T07:28:36;6.28;;;3.50;;
25717;SDS011;13574;52.040;5.692;2023-07-08T07:31:02;4.90;;;3.88;;
25717;SDS011;13574;52.040;5.692;2023-07-08T07:33:30;5.80;;;3.38;;
25717;SDS011;13574;52.040;5.692;2023-07-08T07:35:56;4.32;;;3.58;;
25717;SDS011;13574;52.040;5.692;2023-07-08T07:38:22;4.75;;;3.58;;
25717;SDS011;13574;52.040;5.692;2023-07-08T07:40:53;4.93;;;3.45;;
25717;SDS011;13574;52.040;5.692;2023-07-08T07:43:21;5.00;;;3.50;;
25717;SDS011;13574;52.040;5.692;2023-07-08T07:45:52;5.82;;;3.60;;
25717;SDS011;13574;52.040;5.692;2023-07-08T07:48:21;5.93;;;3.88;;
25717;SDS011;13574;52.040;5.692;2023-07-08T07:50:49;5.35;;;4.10;;
25717;SDS011;13574;52.040;5.692;2023-07-08T07:53:16;5.57;;;3.90;;
25717;SDS011;13574;52.040;5.692;2023-07-08T07:55:43;4.72;;;4.20;;
25717;SDS011;13574;52.040;5.692;2023-07-08T07:58:08;5.38;;;3.90;;
25717;SDS011;13574;52.040;5.692;2023-07-08T08:00:36;5.78;;;4.30;;
25717;SDS011;13574;52.040;5.692;2023-07-08T08:03:03;5.13;;;4.32;;
25717;SDS011;13574;52.040;5.692;2023-07-08T08:05:29;6.47;;;4.53;;
25717;SDS011;13574;52.040;5.692;2023-07-08T08:07:55;6.65;;;4.18;;
25717;SDS011;13574;52.040;5.692;2023-07-08T08:10:23;5.22;;;4.15;;
25717;SDS011;13574;52.040;5.692;2023-07-08T08:12:48;5.88;;;4.40;;
25717;SDS011;13574;52.040;5.692;2023-07-08T08:15:16;14.05;;;4.50;;
25717;SDS011;13574;52.040;5.692;2023-07-08T08:17:43;8.48;;;4.88;;
25717;SDS011;13574;52.040;5.692;2023-07-08T08:20:12;7.03;;;4.57;;
25717;SDS011;13574;52.040;5.692;2023-07-08T08:22:38;6.38;;;4.63;;
25717;SDS011;13574;52.040;5.692;2023-07-08T08:25:04;6.70;;;5.03;;
25717;SDS011;13574;52.040;5.692;2023-07-08T08:27:30;5.85;;;4.93;;
25717;SDS011;13574;52.040;5.692;2023-07-08T08:29:55;6.40;;;4.90;;
25717;SDS011;13574;52.040;5.692;2023-07-08T08:32:21;8.05;;;5.15;;
25717;SDS011;13574;52.040;5.692;2023-07-08T08:34:49;6.13;;;5.05;;
25717;SDS011;13574;52.040;5.692;2023-07-08T08:37:15;6.20;;;4.70;;
25717;SDS011;13574;52.040;5.692;2023-07-08T08:39:41;8.45;;;5.00;;
25717;SDS011;13574;52.040;5.692;2023-07-08T08:42:14;8.55;;;4.85;;
25717;SDS011;13574;52.040;5.692;2023-07-08T08:44:45;6.95;;;5.18;;
25717;SDS011;13574;52.040;5.692;2023-07-08T08:49:44;7.88;;;4.80;;
25717;SDS011;13574;52.040;5.692;2023-07-08T08:52:31;5.78;;;5.03;;
25717;SDS011;13574;52.040;5.692;2023-07-08T08:54:56;7.57;;;5.55;;
25717;SDS011;13574;52.040;5.692;2023-07-08T09:00:00;8.88;;;5.35;;
25717;SDS011;13574;52.040;5.692;2023-07-08T09:02:34;5.25;;;4.60;;
25717;SDS011;13574;52.040;5.692;2023-07-08T09:05:11;5.32;;;4.80;;
25717;SDS011;13574;52.040;5.692;2023-07-08T09:07:44;6.45;;;5.30;;
25717;SDS011;13574;52.040;5.692;2023-07-08T09:13:22;6.60;;;5.10;;
25717;SDS011;13574;52.040;5.692;2023-07-08T09:15:54;7.30;;;5.03;;
25717;SDS011;13574;52.040;5.692;2023-07-08T09:18:33;6.57;;;5.07;;
25717;SDS011;13574;52.040;5.692;2023-07-08T09:21:19;7.28;;;5.38;;
25717;SDS011;13574;52.040;5.692;2023-07-08T09:23:50;5.55;;;4.80;;
25717;SDS011;13574;52.040;5.692;2023-07-08T09:26:21;5.63;;;4.75;;
25717;SDS011;13574;52.040;5.692;2023-07-08T09:28:52;5.38;;;4.72;;
25717;SDS011;13574;52.040;5.692;2023-07-08T09:31:25;7.45;;;5.13;;
25717;SDS011;13574;52.040;5.692;2023-07-08T09:34:05;8.68;;;5.20;;
25717;SDS011;13574;52.040;5.692;2023-07-08T09:36:32;6.10;;;5.05;;
25717;SDS011;13574;52.040;5.692;2023-07-08T09:38:58;7.68;;;5.20;;
25717;SDS011;13574;52.040;5.692;2023-07-08T09:41:33;5.68;;;5.07;;
25717;SDS011;13574;52.040;5.692;2023-07-08T09:44:10;8.95;;;5.10;;
25717;SDS011;13574;52.040;5.692;2023-07-08T09:46:44;7.93;;;5.55;;
25717;SDS011;13574;52.040;5.692;2023-07-08T09:49:15;7.80;;;4.88;;
25717;SDS011;13574;52.040;5.692;2023-07-08T09:51:43;7.57;;;5.38;;
25717;SDS011;13574;52.040;5.692;2023-07-08T09:54:10;6.63;;;5.25;;
25717;SDS011;13574;52.040;5.692;2023-07-08T09:56:38;6.85;;;5.22;;
25717;SDS011;13574;52.040;5.692;2023-07-08T09:59:11;5.63;;;5.05;;
25717;SDS011;13574;52.040;5.692;2023-07-08T10:01:38;6.00;;;5.40;;
25717;SDS011;13574;52.040;5.692;2023-07-08T10:04:06;6.60;;;5.30;;
25717;SDS011;13574;52.040;5.692;2023-07-08T10:06:32;6.18;;;5.53;;
25717;SDS011;13574;52.040;5.692;2023-07-08T10:09:03;8.68;;;5.65;;
25717;SDS011;13574;52.040;5.692;2023-07-08T10:11:42;8.32;;;5.95;;
25717;SDS011;13574;52.040;5.692;2023-07-08T10:14:22;7.70;;;5.68;;
25717;SDS011;13574;52.040;5.692;2023-07-08T10:17:01;7.78;;;5.90;;
25717;SDS011;13574;52.040;5.692;2023-07-08T10:19:27;6.78;;;5.80;;
25717;SDS011;13574;52.040;5.692;2023-07-08T10:27:56;8.70;;;5.88;;
25717;SDS011;13574;52.040;5.692;2023-07-08T10:30:34;7.00;;;5.80;;
25717;SDS011;13574;52.040;5.692;2023-07-08T10:33:20;9.13;;;6.53;;
25717;SDS011;13574;52.040;5.692;2023-07-08T10:36:10;7.38;;;5.63;;
25717;SDS011;13574;52.040;5.692;2023-07-08T10:38:49;7.93;;;6.22;;
25717;SDS011;13574;52.040;5.692;2023-07-08T10:44:35;6.63;;;5.70;;
25717;SDS011;13574;52.040;5.692;2023-07-08T10:47:16;6.70;;;6.00;;
25717;SDS011;13574;52.040;5.692;2023-07-08T10:57:55;8.35;;;6.32;;
25717;SDS011;13574;52.040;5.692;2023-07-08T11:06:01;9.32;;;6.15;;
25717;SDS011;13574;52.040;5.692;2023-07-08T11:08:50;7.90;;;5.90;;
25717;SDS011;13574;52.040;5.692;2023-07-08T11:11:27;8.25;;;6.20;;
25717;SDS011;13574;52.040;5.692;2023-07-08T11:13:55;9.15;;;6.55;;
25717;SDS011;13574;52.040;5.692;2023-07-08T11:16:31;9.88;;;6.40;;
25717;SDS011;13574;52.040;5.692;2023-07-08T11:19:13;9.73;;;6.53;;
25717;SDS011;13574;52.040;5.692;2023-07-08T11:21:45;8.32;;;6.18;;
25717;SDS011;13574;52.040;5.692;2023-07-08T11:29:21;8.60;;;6.53;;
25717;SDS011;13574;52.040;5.692;2023-07-08T11:32:12;9.10;;;6.20;;
25717;SDS011;13574;52.040;5.692;2023-07-08T11:34:41;9.77;;;6.40;;
25717;SDS011;13574;52.040;5.692;2023-07-08T11:37:09;7.82;;;5.80;;
25717;SDS011;13574;52.040;5.692;2023-07-08T11:39:44;10.32;;;6.22;;
25717;SDS011;13574;52.040;5.692;2023-07-08T11:42:14;9.48;;;6.47;;
25717;SDS011;13574;52.040;5.692;2023-07-08T11:45:07;9.20;;;6.07;;
25717;SDS011;13574;52.040;5.692;2023-07-08T11:47:41;9.02;;;6.25;;
25717;SDS011;13574;52.040;5.692;2023-07-08T11:50:22;8.02;;;6.30;;
25717;SDS011;13574;52.040;5.692;2023-07-08T11:53:03;8.65;;;6.07;;
25717;SDS011;13574;52.040;5.692;2023-07-08T11:58:06;9.73;;;6.95;;
25717;SDS011;13574;52.040;5.692;2023-07-08T12:00:34;8.10;;;6.20;;
25717;SDS011;13574;52.040;5.692;2023-07-08T12:03:04;9.25;;;6.32;;
25717;SDS011;13574;52.040;5.692;2023-07-08T12:05:44;8.93;;;6.07;;
25717;SDS011;13574;52.040;5.692;2023-07-08T12:08:12;9.40;;;6.05;;
25717;SDS011;13574;52.040;5.692;2023-07-08T12:10:40;8.15;;;5.68;;
25717;SDS011;13574;52.040;5.692;2023-07-08T12:13:15;7.43;;;5.72;;
25717;SDS011;13574;52.040;5.692;2023-07-08T12:15:44;7.75;;;5.70;;
25717;SDS011;13574;52.040;5.692;2023-07-08T12:18:14;10.68;;;6.13;;
25717;SDS011;13574;52.040;5.692;2023-07-08T12:20:54;9.15;;;5.97;;
25717;SDS011;13574;52.040;5.692;2023-07-08T12:23:22;11.55;;;6.30;;
25717;SDS011;13574;52.040;5.692;2023-07-08T12:25:50;9.25;;;5.85;;
25717;SDS011;13574;52.040;5.692;2023-07-08T12:28:16;8.18;;;6.40;;
25717;SDS011;13574;52.040;5.692;2023-07-08T12:30:43;10.63;;;5.95;;
25717;SDS011;13574;52.040;5.692;2023-07-08T12:33:12;9.60;;;5.95;;
25717;SDS011;13574;52.040;5.692;2023-07-08T12:35:43;8.57;;;6.00;;
25717;SDS011;13574;52.040;5.692;2023-07-08T12:40:40;8.57;;;6.18;;
25717;SDS011;13574;52.040;5.692;2023-07-08T12:43:07;8.88;;;6.18;;
25717;SDS011;13574;52.040;5.692;2023-07-08T12:45:34;11.50;;;6.00;;
25717;SDS011;13574;52.040;5.692;2023-07-08T12:48:01;9.45;;;6.00;;
25717;SDS011;13574;52.040;5.692;2023-07-08T12:50:26;11.38;;;5.97;;
25717;SDS011;13574;52.040;5.692;2023-07-08T12:52:52;7.53;;;5.72;;
25717;SDS011;13574;52.040;5.692;2023-07-08T12:55:18;7.90;;;5.95;;
25717;SDS011;13574;52.040;5.692;2023-07-08T12:57:44;8.57;;;5.80;;
25717;SDS011;13574;52.040;5.692;2023-07-08T13:00:14;8.93;;;6.03;;
25717;SDS011;13574;52.040;5.692;2023-07-08T13:02:48;8.13;;;5.65;;
25717;SDS011;13574;52.040;5.692;2023-07-08T13:05:21;9.02;;;5.80;;
25717;SDS011;13574;52.040;5.692;2023-07-08T13:07:47;10.35;;;6.22;;
25717;SDS011;13574;52.040;5.692;2023-07-08T13:10:23;9.63;;;6.15;;
25717;SDS011;13574;52.040;5.692;2023-07-08T13:12:53;11.35;;;5.97;;
25717;SDS011;13574;52.040;5.692;2023-07-08T13:15:27;9.05;;;6.07;;
25717;SDS011;13574;52.040;5.692;2023-07-08T13:17:59;7.50;;;5.95;;
25717;SDS011;13574;52.040;5.692;2023-07-08T13:20:25;11.82;;;6.03;;
25717;SDS011;13574;52.040;5.692;2023-07-08T13:22:53;11.35;;;5.53;;
25717;SDS011;13574;52.040;5.692;2023-07-08T13:25:25;8.68;;;5.70;;
25717;SDS011;13574;52.040;5.692;2023-07-08T13:27:54;10.20;;;6.22;;
25717;SDS011;13574;52.040;5.692;2023-07-08T13:30:26;8.02;;;5.60;;
25717;SDS011;13574;52.040;5.692;2023-07-08T13:32:57;8.18;;;5.60;;
25717;SDS011;13574;52.040;5.692;2023-07-08T13:35:25;10.15;;;5.95;;
25717;SDS011;13574;52.040;5.692;2023-07-08T13:37:54;8.38;;;5.75;;
25717;SDS011;13574;52.040;5.692;2023-07-08T13:40:21;10.18;;;6.28;;
25717;SDS011;13574;52.040;5.692;2023-07-08T13:42:47;9.77;;;6.05;;
25717;SDS011;13574;52.040;5.692;2023-07-08T13:45:16;10.90;;;5.72;;
25717;SDS011;13574;52.040;5.692;2023-07-08T13:47:59;8.15;;;5.40;;
25717;SDS011;13574;52.040;5.692;2023-07-08T13:50:29;9.48;;;5.50;;
25717;SDS011;13574;52.040;5.692;2023-07-08T13:53:13;9.57;;;5.20;;
25717;SDS011;13574;52.040;5.692;2023-07-08T13:55:41;11.38;;;5.80;;
25717;SDS011;13574;52.040;5.692;2023-07-08T13:58:07;8.07;;;5.95;;
25717;SDS011;13574;52.040;5.692;2023-07-08T14:00:41;8.55;;;6.13;;
25717;SDS011;13574;52.040;5.692;2023-07-08T14:03:09;9.35;;;6.05;;
25717;SDS011;13574;52.040;5.692;2023-07-08T14:05:38;10.77;;;6.32;;
25717;SDS011;13574;52.040;5.692;2023-07-08T14:08:09;8.65;;;5.93;;
25717;SDS011;13574;52.040;5.692;2023-07-08T14:10:38;11.75;;;5.40;;
25717;SDS011;13574;52.040;5.692;2023-07-08T14:13:04;8.15;;;5.68;;
25717;SDS011;13574;52.040;5.692;2023-07-08T14:15:30;10.07;;;5.95;;
25717;SDS011;13574;52.040;5.692;2023-07-08T14:17:57;10.23;;;6.25;;
25717;SDS011;13574;52.040;5.692;2023-07-08T14:20:25;11.25;;;6.28;;
25717;SDS011;13574;52.040;5.692;2023-07-08T14:22:55;10.38;;;6.00;;
25717;SDS011;13574;52.040;5.692;2023-07-08T14:25:21;11.07;;;6.07;;
25717;SDS011;13574;52.040;5.692;2023-07-08T14:27:48;11.45;;;6.53;;
25717;SDS011;13574;52.040;5.692;2023-07-08T14:30:18;11.77;;;6.53;;
25717;SDS011;13574;52.040;5.692;2023-07-08T14:32:44;11.20;;;6.78;;
25717;SDS011;13574;52.040;5.692;2023-07-08T14:37:36;10.02;;;6.35;;
25717;SDS011;13574;52.040;5.692;2023-07-08T14:40:11;8.30;;;6.13;;
25717;SDS011;13574;52.040;5.692;2023-07-08T14:42:44;9.68;;;6.57;;
25717;SDS011;13574;52.040;5.692;2023-07-08T14:45:10;9.07;;;6.22;;
25717;SDS011;13574;52.040;5.692;2023-07-08T14:47:36;10.70;;;6.70;;
25717;SDS011;13574;52.040;5.692;2023-07-08T14:50:23;10.05;;;5.82;;
25717;SDS011;13574;52.040;5.692;2023-07-08T14:52:47;9.90;;;6.38;;
25717;SDS011;13574;52.040;5.692;2023-07-08T14:55:13;8.73;;;6.60;;
25717;SDS011;13574;52.040;5.692;2023-07-08T14:57:45;8.60;;;6.25;;
25717;SDS011;13574;52.040;5.692;2023-07-08T15:00:14;8.15;;;6.15;;
25717;SDS011;13574;52.040;5.692;2023-07-08T15:02:42;8.05;;;5.95;;
25717;SDS011;13574;52.040;5.692;2023-07-08T15:05:27;7.68;;;5.72;;
25717;SDS011;13574;52.040;5.692;2023-07-08T15:07:54;11.25;;;6.32;;
25717;SDS011;13574;52.040;5.692;2023-07-08T15:10:28;14.13;;;6.63;;
25717;SDS011;13574;52.040;5.692;2023-07-08T15:12:55;9.07;;;6.15;;
25717;SDS011;13574;52.040;5.692;2023-07-08T15:15:28;9.65;;;6.32;;
25717;SDS011;13574;52.040;5.692;2023-07-08T15:17:56;8.75;;;5.75;;
25717;SDS011;13574;52.040;5.692;2023-07-08T15:20:23;10.68;;;5.80;;
25717;SDS011;13574;52.040;5.692;2023-07-08T15:22:49;9.43;;;6.15;;
25717;SDS011;13574;52.040;5.692;2023-07-08T15:25:16;8.82;;;5.93;;
25717;SDS011;13574;52.040;5.692;2023-07-08T15:27:47;10.30;;;5.97;;
25717;SDS011;13574;52.040;5.692;2023-07-08T15:30:17;9.43;;;5.93;;
25717;SDS011;13574;52.040;5.692;2023-07-08T15:32:50;8.38;;;5.97;;
25717;SDS011;13574;52.040;5.692;2023-07-08T15:37:44;9.40;;;5.78;;
25717;SDS011;13574;52.040;5.692;2023-07-08T15:40:13;9.73;;;6.15;;
25717;SDS011;13574;52.040;5.692;2023-07-08T15:42:41;8.95;;;5.80;;
25717;SDS011;13574;52.040;5.692;2023-07-08T15:45:15;8.98;;;5.63;;
25717;SDS011;13574;52.040;5.692;2023-07-08T15:47:49;8.98;;;5.80;;
25717;SDS011;13574;52.040;5.692;2023-07-08T15:50:19;11.32;;;6.28;;
25717;SDS011;13574;52.040;5.692;2023-07-08T15:52:46;7.75;;;5.70;;
25717;SDS011;13574;52.040;5.692;2023-07-08T15:55:13;10.32;;;6.28;;
25717;SDS011;13574;52.040;5.692;2023-07-08T15:57:46;10.05;;;5.57;;
25717;SDS011;13574;52.040;5.692;2023-07-08T16:00:16;13.27;;;5.72;;
25717;SDS011;13574;52.040;5.692;2023-07-08T16:02:46;9.20;;;6.32;;